createdAt,value
2019-03-26T00:00:27.562Z,3.00
2019-03-26T00:02:54.926Z,2.89
2019-03-26T00:05:22.221Z,2.82
2019-03-26T00:07:49.409Z,2.82
2019-03-26T00:10:16.597Z,2.73
2019-03-26T00:12:43.928Z,2.68
2019-03-26T00:15:11.129Z,2.65
2019-03-26T00:17:38.420Z,2.63
2019-03-26T00:20:05.696Z,2.58
2019-03-26T00:22:33.018Z,2.59
2019-03-26T00:25:00.494Z,2.54
2019-03-26T00:27:27.766Z,2.55
2019-03-26T00:29:55.044Z,2.55
2019-03-26T00:32:23.592Z,2.50
2019-03-26T00:34:50.942Z,2.49
2019-03-26T00:37:18.296Z,2.47
2019-03-26T00:39:45.474Z,2.48
2019-03-26T00:42:12.657Z,2.48
2019-03-26T00:44:39.997Z,2.43
2019-03-26T00:47:07.182Z,2.41
2019-03-26T00:49:34.359Z,2.36
2019-03-26T00:52:01.676Z,2.34
2019-03-26T00:54:28.867Z,2.34
2019-03-26T00:56:56.107Z,2.31
2019-03-26T00:59:23.521Z,2.25
2019-03-26T01:01:50.786Z,2.21
2019-03-26T01:04:18.001Z,2.16
2019-03-26T01:06:45.348Z,2.13
2019-03-26T01:09:12.633Z,2.15
2019-03-26T01:11:40.011Z,2.09
2019-03-26T01:14:07.333Z,2.18
2019-03-26T01:16:34.512Z,2.19
2019-03-26T01:19:01.742Z,2.16
2019-03-26T01:21:28.960Z,2.14
2019-03-26T01:23:56.237Z,2.10
2019-03-26T01:26:23.594Z,2.07
2019-03-26T01:28:50.869Z,2.03
2019-03-26T01:31:18.147Z,2.00
2019-03-26T01:33:45.391Z,1.94
2019-03-26T01:36:12.620Z,1.89
2019-03-26T01:38:39.916Z,1.86
2019-03-26T01:41:07.282Z,1.83
2019-03-26T01:43:34.671Z,1.79
2019-03-26T01:46:01.867Z,1.78
2019-03-26T01:48:29.265Z,1.75
2019-03-26T01:50:56.547Z,1.72
2019-03-26T01:53:23.748Z,1.70
2019-03-26T01:55:51.099Z,1.68
2019-03-26T01:58:18.328Z,1.65
2019-03-26T02:00:45.518Z,1.61
2019-03-26T02:03:12.701Z,1.55
2019-03-26T02:05:39.988Z,1.61
2019-03-26T02:08:07.232Z,1.58
2019-03-26T02:10:34.642Z,1.55
2019-03-26T02:13:02.012Z,1.50
2019-03-26T02:15:30.949Z,1.51
2019-03-26T02:17:58.833Z,1.54
2019-03-26T02:20:26.148Z,1.54
2019-03-26T02:22:53.452Z,1.57
2019-03-26T02:25:20.679Z,1.54
2019-03-26T02:27:47.871Z,1.52
2019-03-26T02:30:15.219Z,1.53
2019-03-26T02:32:42.533Z,1.58
2019-03-26T02:35:17.608Z,1.79
2019-03-26T02:37:38.929Z,1.74
2019-03-26T02:40:06.241Z,1.72
2019-03-26T02:42:33.444Z,1.69
2019-03-26T02:45:01.001Z,1.66
2019-03-26T02:47:28.447Z,1.74
2019-03-26T02:49:55.749Z,1.79
2019-03-26T02:52:23.047Z,1.86
2019-03-26T02:54:50.356Z,1.97
2019-03-26T02:57:17.677Z,1.95
2019-03-26T02:59:44.979Z,1.93
2019-03-26T03:02:12.328Z,1.96
2019-03-26T03:04:39.532Z,1.98
2019-03-26T03:07:06.724Z,2.04
2019-03-26T03:09:34.019Z,1.99
2019-03-26T03:12:01.322Z,2.15
2019-03-26T03:14:28.679Z,2.11
2019-03-26T03:16:56.022Z,2.07
2019-03-26T03:19:23.219Z,2.17
2019-03-26T03:21:50.519Z,2.19
2019-03-26T03:24:17.838Z,2.21
2019-03-26T03:26:45.039Z,2.31
2019-03-26T03:29:12.252Z,2.31
2019-03-26T03:31:39.596Z,2.26
2019-03-26T03:34:06.904Z,2.25
2019-03-26T03:36:34.120Z,2.27
2019-03-26T03:39:01.353Z,2.29
2019-03-26T03:41:28.588Z,2.42
2019-03-26T03:43:55.960Z,2.50
2019-03-26T03:46:23.285Z,2.47
2019-03-26T03:48:50.469Z,2.46
2019-03-26T03:51:19.470Z,2.46
2019-03-26T03:53:46.832Z,2.50
2019-03-26T03:56:15.749Z,2.48
2019-03-26T03:58:44.624Z,2.48
2019-03-26T04:01:11.917Z,2.48
2019-03-26T04:03:39.118Z,2.57
2019-03-26T04:06:09.749Z,2.60
2019-03-26T04:08:35.620Z,2.57
2019-03-26T04:11:03.190Z,2.59
2019-03-26T04:13:30.431Z,2.54
2019-03-26T04:15:57.790Z,2.66
2019-03-26T04:18:24.976Z,2.73
2019-03-26T04:20:52.167Z,2.73
2019-03-26T04:23:19.557Z,2.76
2019-03-26T04:25:46.852Z,2.72
2019-03-26T04:28:14.145Z,2.67
2019-03-26T04:30:41.541Z,2.68
2019-03-26T04:33:08.780Z,2.79
2019-03-26T04:35:36.283Z,2.79
2019-03-26T04:38:03.741Z,2.92
2019-03-26T04:40:31.209Z,2.93
2019-03-26T04:42:58.607Z,2.98
2019-03-26T04:45:26.012Z,3.02
2019-03-26T04:47:53.385Z,3.15
2019-03-26T04:50:20.796Z,3.22
2019-03-26T04:52:48.015Z,3.19
2019-03-26T04:55:17.536Z,3.11
2019-03-26T04:57:44.794Z,3.18
2019-03-26T05:00:12.260Z,3.16
2019-03-26T05:02:39.467Z,3.12
2019-03-26T05:05:06.688Z,3.17
2019-03-26T05:07:33.992Z,3.19
2019-03-26T05:10:01.416Z,3.28
2019-03-26T05:12:28.819Z,3.27
2019-03-26T05:14:57.174Z,3.33
2019-03-26T05:17:24.484Z,3.32
2019-03-26T05:19:51.867Z,3.32
2019-03-26T05:22:24.322Z,3.39
2019-03-26T05:24:48.395Z,3.41
2019-03-26T05:27:15.601Z,3.40
2019-03-26T05:29:42.799Z,3.36
2019-03-26T05:32:10.141Z,3.37
2019-03-26T05:34:37.406Z,3.34
2019-03-26T05:37:04.700Z,3.38
2019-03-26T05:39:32.303Z,3.42
2019-03-26T05:41:59.491Z,3.39
2019-03-26T05:44:26.771Z,3.35
2019-03-26T05:46:53.950Z,3.32
2019-03-26T05:49:21.316Z,3.34
2019-03-26T05:51:48.531Z,3.32
2019-03-26T05:54:15.933Z,3.35
2019-03-26T05:56:43.164Z,3.43
2019-03-26T05:59:10.544Z,3.46
2019-03-26T06:01:37.984Z,3.53
2019-03-26T06:04:05.588Z,3.56
2019-03-26T06:06:32.903Z,3.61
2019-03-26T06:09:00.134Z,3.67
2019-03-26T06:11:27.482Z,3.65
2019-03-26T06:13:54.810Z,3.80
2019-03-26T06:16:22.120Z,3.81
2019-03-26T06:18:49.530Z,3.85
2019-03-26T06:21:17.136Z,3.88
2019-03-26T06:23:44.436Z,3.96
2019-03-26T06:26:11.809Z,3.99
2019-03-26T06:28:39.113Z,4.05
2019-03-26T06:31:06.403Z,4.09
2019-03-26T06:33:33.762Z,4.17
2019-03-26T06:36:00.974Z,4.22
2019-03-26T06:38:28.201Z,4.28
2019-03-26T06:40:55.606Z,4.29
2019-03-26T06:43:22.927Z,4.33
2019-03-26T06:45:50.127Z,4.41
2019-03-26T06:48:17.573Z,4.50
2019-03-26T06:50:44.966Z,4.51
2019-03-26T06:53:12.159Z,4.54
2019-03-26T06:55:39.556Z,4.58
2019-03-26T06:58:06.853Z,4.63
2019-03-26T07:00:34.252Z,4.65
2019-03-26T07:03:03.348Z,4.71
2019-03-26T07:05:30.681Z,4.74
2019-03-26T07:07:58.007Z,4.78
2019-03-26T07:10:26.917Z,4.84
2019-03-26T07:12:54.265Z,4.88
2019-03-26T07:15:21.604Z,4.92
2019-03-26T07:17:48.796Z,4.91
2019-03-26T07:20:16.108Z,4.94
2019-03-26T07:22:43.353Z,4.96
2019-03-26T07:25:10.666Z,4.94
2019-03-26T07:27:37.985Z,4.98
2019-03-26T07:30:07.798Z,5.03
2019-03-26T07:32:35.159Z,5.03
2019-03-26T07:35:02.553Z,5.12
2019-03-26T07:37:29.882Z,5.16
2019-03-26T07:39:57.192Z,5.22
2019-03-26T07:42:24.530Z,5.23
2019-03-26T07:44:51.744Z,5.22
2019-03-26T07:47:19.140Z,5.19
2019-03-26T07:49:46.367Z,5.23
2019-03-26T07:52:15.661Z,5.30
2019-03-26T07:54:42.874Z,5.33
2019-03-26T07:57:10.212Z,5.36
2019-03-26T07:59:37.633Z,5.40
2019-03-26T08:02:04.826Z,5.45
2019-03-26T08:04:32.140Z,5.53
2019-03-26T08:06:59.587Z,5.59
2019-03-26T08:09:27.189Z,5.65
2019-03-26T08:11:54.557Z,5.69
2019-03-26T08:14:22.013Z,5.69
2019-03-26T08:16:49.525Z,5.73
2019-03-26T08:19:16.856Z,5.79
2019-03-26T08:21:44.198Z,5.80
2019-03-26T08:24:12.167Z,5.84
2019-03-26T08:26:39.390Z,5.87
2019-03-26T08:29:06.717Z,5.92
2019-03-26T08:31:34.370Z,6.02
2019-03-26T08:34:01.691Z,5.99
2019-03-26T08:36:29.017Z,6.05
2019-03-26T08:38:56.251Z,6.06
2019-03-26T08:41:23.597Z,6.12
2019-03-26T08:43:50.935Z,6.13
2019-03-26T08:46:18.300Z,6.17
2019-03-26T08:48:45.871Z,6.16
2019-03-26T08:51:13.076Z,6.20
2019-03-26T08:53:40.414Z,6.25
2019-03-26T08:56:08.011Z,6.34
2019-03-26T08:58:35.358Z,6.40
2019-03-26T09:01:02.747Z,6.51
2019-03-26T09:03:30.222Z,6.63
2019-03-26T09:05:57.557Z,6.75
2019-03-26T09:08:25.848Z,6.85
2019-03-26T09:10:53.256Z,7.01
2019-03-26T09:13:20.506Z,7.12
2019-03-26T09:15:47.813Z,7.27
2019-03-26T09:18:15.351Z,7.43
2019-03-26T09:20:43.162Z,7.60
2019-03-26T09:23:12.275Z,7.78
2019-03-26T09:25:40.624Z,8.00
2019-03-26T09:28:08.046Z,8.25
2019-03-26T09:30:35.746Z,8.58
2019-03-26T09:33:03.164Z,8.93
2019-03-26T09:35:30.394Z,9.26
2019-03-26T09:37:57.957Z,9.44
2019-03-26T09:40:25.432Z,9.69
2019-03-26T09:42:52.772Z,10.02
2019-03-26T09:45:20.012Z,10.39
2019-03-26T09:47:47.384Z,10.57
2019-03-26T09:50:19.266Z,10.75
2019-03-26T09:52:46.806Z,10.93
2019-03-26T09:55:14.130Z,11.12
2019-03-26T09:57:41.944Z,11.12
2019-03-26T10:00:10.592Z,11.04
2019-03-26T10:02:37.945Z,10.96
2019-03-26T10:05:06.125Z,10.86
2019-03-26T10:07:33.777Z,10.88
2019-03-26T10:10:01.010Z,11.05
2019-03-26T10:12:28.380Z,11.30
2019-03-26T10:14:56.808Z,11.37
2019-03-26T10:17:24.377Z,11.40
2019-03-26T10:19:51.732Z,11.37
2019-03-26T10:22:20.131Z,11.38
2019-03-26T10:24:47.591Z,11.31
2019-03-26T10:27:15.015Z,11.30
2019-03-26T10:29:42.216Z,11.40
2019-03-26T10:32:09.619Z,11.57
2019-03-26T10:34:37.367Z,11.90
2019-03-26T10:37:04.608Z,12.23
2019-03-26T10:39:33.488Z,12.42
2019-03-26T10:42:01.088Z,12.34
2019-03-26T10:44:28.766Z,12.15
2019-03-26T10:46:56.235Z,11.96
2019-03-26T10:49:23.704Z,11.70
2019-03-26T10:51:50.970Z,11.44
2019-03-26T10:54:18.397Z,11.16
2019-03-26T10:56:47.089Z,10.95
2019-03-26T10:59:14.731Z,10.70
2019-03-26T11:01:42.169Z,10.49
2019-03-26T11:04:09.519Z,10.36
2019-03-26T11:06:36.866Z,10.26
2019-03-26T11:09:18.910Z,10.16
2019-03-26T11:11:35.293Z,10.12
2019-03-26T11:14:02.811Z,10.07
2019-03-26T11:16:30.176Z,10.09
2019-03-26T11:18:57.548Z,10.16
2019-03-26T11:21:24.856Z,10.23
2019-03-26T11:23:52.146Z,10.29
2019-03-26T11:26:19.441Z,10.33
2019-03-26T11:28:46.685Z,10.30
2019-03-26T11:31:14.046Z,10.25
2019-03-26T11:33:41.364Z,10.25
2019-03-26T11:36:08.688Z,10.31
2019-03-26T11:38:36.059Z,10.33
2019-03-26T11:41:03.353Z,10.28
2019-03-26T11:43:30.634Z,10.18
2019-03-26T11:45:58.006Z,10.19
2019-03-26T11:48:25.243Z,10.27
2019-03-26T11:50:52.545Z,10.29
2019-03-26T11:53:19.886Z,10.37
2019-03-26T11:55:47.248Z,10.46
2019-03-26T11:58:14.571Z,10.63
2019-03-26T12:00:41.850Z,10.91
2019-03-26T12:03:09.152Z,11.04
2019-03-26T12:05:36.353Z,11.19
2019-03-26T12:08:03.696Z,11.27
2019-03-26T12:10:31.000Z,11.31
2019-03-26T12:12:58.400Z,11.31
2019-03-26T12:15:25.862Z,11.29
2019-03-26T12:17:53.402Z,11.31
2019-03-26T12:20:20.811Z,11.32
2019-03-26T12:22:49.033Z,11.33
2019-03-26T12:25:16.679Z,11.39
2019-03-26T12:27:51.689Z,11.34
2019-03-26T12:30:31.661Z,11.35
2019-03-26T12:32:59.256Z,11.38
2019-03-26T12:35:29.820Z,11.33
2019-03-26T12:38:02.924Z,11.24
2019-03-26T12:40:30.736Z,11.17
2019-03-26T12:42:58.300Z,11.14
2019-03-26T12:45:25.680Z,11.10
2019-03-26T12:47:53.027Z,11.06
2019-03-26T12:50:20.362Z,11.02
2019-03-26T12:52:47.690Z,11.00
2019-03-26T12:55:15.228Z,10.90
2019-03-26T12:57:42.573Z,10.83
2019-03-26T13:00:10.888Z,10.73
2019-03-26T13:02:38.438Z,10.64
2019-03-26T13:05:06.202Z,10.59
2019-03-26T13:07:33.821Z,10.57
2019-03-26T13:10:12.724Z,10.55
2019-03-26T13:12:31.541Z,10.54
2019-03-26T13:14:59.522Z,10.53
2019-03-26T13:17:28.439Z,10.58
2019-03-26T13:19:56.776Z,10.62
2019-03-26T13:22:24.777Z,10.65
2019-03-26T13:24:53.377Z,10.67
2019-03-26T13:27:20.826Z,10.66
2019-03-26T13:29:48.397Z,10.73
2019-03-26T13:32:15.772Z,10.79
2019-03-26T13:34:43.134Z,10.73
2019-03-26T13:37:10.498Z,10.65
2019-03-26T13:39:37.900Z,10.56
2019-03-26T13:42:05.220Z,10.47
2019-03-26T13:44:32.495Z,10.33
2019-03-26T13:46:59.836Z,10.25
2019-03-26T13:49:27.345Z,10.11
2019-03-26T13:51:54.789Z,10.00
2019-03-26T13:54:22.151Z,9.99
2019-03-26T13:56:49.986Z,9.88
2019-03-26T13:59:17.215Z,9.83
2019-03-26T14:01:44.581Z,9.72
2019-03-26T14:04:11.980Z,9.76
2019-03-26T14:06:39.308Z,9.76
2019-03-26T14:09:07.249Z,9.73
2019-03-26T14:11:34.517Z,9.75
2019-03-26T14:14:02.004Z,9.78
2019-03-26T14:16:29.256Z,9.79
2019-03-26T14:18:56.629Z,9.74
2019-03-26T14:21:23.965Z,9.73
2019-03-26T14:23:52.614Z,9.74
2019-03-26T14:26:19.840Z,9.80
2019-03-26T14:28:47.170Z,9.85
2019-03-26T14:31:14.568Z,9.87
2019-03-26T14:33:42.420Z,9.89
2019-03-26T14:36:10.486Z,9.93
2019-03-26T14:38:38.211Z,9.97
2019-03-26T14:41:05.638Z,10.00
2019-03-26T14:43:33.114Z,10.06
2019-03-26T14:46:00.537Z,10.08
2019-03-26T14:48:27.883Z,10.09
2019-03-26T14:50:55.219Z,10.10
2019-03-26T14:53:22.678Z,10.11
2019-03-26T14:55:50.016Z,10.15
2019-03-26T14:58:17.544Z,10.14
2019-03-26T15:00:44.836Z,10.15
2019-03-26T15:03:12.263Z,10.15
2019-03-26T15:05:39.647Z,10.15
2019-03-26T15:08:10.092Z,10.16
2019-03-26T15:10:37.570Z,10.23
2019-03-26T15:13:05.270Z,10.25
2019-03-26T15:15:32.500Z,10.27
2019-03-26T15:17:59.954Z,10.26
2019-03-26T15:20:27.507Z,10.24
2019-03-26T15:22:57.914Z,10.22
2019-03-26T15:25:24.059Z,10.15
2019-03-26T15:27:51.276Z,10.06
2019-03-26T15:30:19.129Z,10.03
2019-03-26T15:32:46.494Z,9.96
2019-03-26T15:35:14.006Z,9.91
2019-03-26T15:37:41.351Z,9.87
2019-03-26T15:40:08.970Z,9.85
2019-03-26T15:42:36.436Z,9.86
2019-03-26T15:47:33.906Z,9.94
2019-03-26T15:50:01.373Z,9.82
2019-03-26T15:52:28.707Z,9.80
2019-03-26T15:54:56.777Z,9.78
2019-03-26T15:57:24.064Z,9.74
2019-03-26T15:59:52.630Z,9.72
2019-03-26T16:02:20.059Z,9.68
2019-03-26T16:04:47.413Z,9.62
2019-03-26T16:07:14.866Z,9.63
2019-03-26T16:09:42.208Z,9.59
2019-03-26T16:12:09.613Z,9.49
2019-03-26T16:14:37.016Z,9.43
2019-03-26T16:17:04.345Z,9.37
2019-03-26T16:19:32.880Z,9.30
2019-03-26T16:22:00.375Z,9.28
2019-03-26T16:24:27.628Z,9.25
2019-03-26T16:26:55.071Z,9.27
2019-03-26T16:29:22.410Z,9.24
2019-03-26T16:31:49.885Z,9.20
2019-03-26T16:34:17.461Z,9.15
2019-03-26T16:36:58.521Z,9.11
2019-03-26T16:39:14.097Z,9.08
2019-03-26T16:41:49.075Z,9.03
2019-03-26T16:44:10.706Z,8.98
2019-03-26T16:46:38.087Z,8.91
2019-03-26T16:49:05.449Z,8.88
2019-03-26T16:51:32.832Z,8.83
2019-03-26T16:54:00.154Z,8.76
2019-03-26T16:56:27.469Z,8.75
2019-03-26T16:58:54.697Z,8.71
2019-03-26T17:01:22.059Z,8.61
2019-03-26T17:03:49.510Z,8.52
2019-03-26T17:06:16.734Z,8.47
2019-03-26T17:08:44.084Z,8.44
2019-03-26T17:11:11.415Z,8.43
2019-03-26T17:13:38.735Z,8.37
2019-03-26T17:16:06.157Z,8.37
2019-03-26T17:18:33.602Z,8.36
2019-03-26T17:21:00.841Z,8.32
2019-03-26T17:23:28.452Z,8.31
2019-03-26T17:25:55.822Z,8.29
2019-03-26T17:28:23.073Z,8.26
2019-03-26T17:30:50.423Z,8.25
2019-03-26T17:33:17.656Z,8.22
2019-03-26T17:35:45.004Z,8.16
2019-03-26T17:38:12.314Z,8.15
2019-03-26T17:40:39.732Z,8.12
2019-03-26T17:43:07.032Z,8.16
2019-03-26T17:45:34.331Z,8.16
2019-03-26T17:48:01.803Z,8.13
2019-03-26T17:50:29.416Z,8.14
2019-03-26T17:52:56.664Z,8.14
2019-03-26T17:55:24.127Z,8.15
2019-03-26T17:57:52.780Z,8.13
2019-03-26T18:00:37.619Z,8.08
2019-03-26T18:03:05.086Z,8.07
2019-03-26T18:05:32.663Z,8.09
2019-03-26T18:08:00.071Z,8.05
2019-03-26T18:10:27.497Z,8.04
2019-03-26T18:12:54.818Z,8.04
2019-03-26T18:15:22.712Z,8.01
2019-03-26T18:17:50.030Z,8.00
2019-03-26T18:20:17.370Z,7.99
2019-03-26T18:22:44.775Z,7.95
2019-03-26T18:25:12.125Z,7.91
2019-03-26T18:27:39.625Z,7.83
2019-03-26T18:30:07.136Z,7.79
2019-03-26T18:32:34.385Z,7.77
2019-03-26T18:35:01.775Z,7.76
2019-03-26T18:37:29.083Z,7.70
2019-03-26T18:39:57.061Z,7.72
2019-03-26T18:42:24.476Z,7.70
2019-03-26T18:44:51.807Z,7.70
2019-03-26T18:47:19.130Z,7.68
2019-03-26T18:49:46.541Z,7.69
2019-03-26T18:52:15.717Z,7.72
2019-03-26T18:54:43.116Z,7.75
2019-03-26T18:57:10.567Z,7.71
2019-03-26T18:59:37.885Z,7.70
2019-03-26T19:02:05.271Z,7.67
2019-03-26T19:04:32.772Z,7.66
2019-03-26T19:07:00.183Z,7.65
2019-03-26T19:09:27.407Z,7.60
2019-03-26T19:11:54.720Z,7.56
2019-03-26T19:14:22.123Z,7.58
2019-03-26T19:16:49.505Z,7.62
2019-03-26T19:19:16.986Z,7.64
2019-03-26T19:21:44.325Z,7.63
2019-03-26T19:24:11.624Z,7.62
2019-03-26T19:26:39.057Z,7.65
2019-03-26T19:29:06.418Z,7.61
2019-03-26T19:31:33.693Z,7.60
2019-03-26T19:34:01.081Z,7.58
2019-03-26T19:36:28.697Z,7.61
2019-03-26T19:38:56.099Z,7.59
2019-03-26T19:41:23.393Z,7.57
2019-03-26T19:43:50.799Z,7.55
2019-03-26T19:46:18.017Z,7.54
2019-03-26T19:48:45.401Z,7.56
2019-03-26T19:51:12.626Z,7.55
2019-03-26T19:53:40.081Z,7.53
2019-03-26T19:56:07.399Z,7.39
2019-03-26T19:58:34.712Z,7.53
2019-03-26T20:01:02.021Z,7.54
2019-03-26T20:03:30.306Z,7.53
2019-03-26T20:05:57.662Z,7.53
2019-03-26T20:08:24.976Z,7.52
2019-03-26T20:10:52.351Z,7.49
2019-03-26T20:13:24.538Z,7.47
2019-03-26T20:15:49.051Z,7.46
2019-03-26T20:18:16.509Z,7.46
2019-03-26T20:20:43.818Z,7.47
2019-03-26T20:23:11.224Z,7.46
2019-03-26T20:25:38.681Z,7.48
2019-03-26T20:28:06.050Z,7.46
2019-03-26T20:30:33.405Z,7.45
2019-03-26T20:33:00.759Z,7.43
2019-03-26T20:35:28.075Z,7.41
2019-03-26T20:37:55.456Z,7.41
2019-03-26T20:40:22.831Z,7.37
2019-03-26T20:42:51.869Z,7.36
2019-03-26T20:45:19.305Z,7.38
2019-03-26T20:47:46.635Z,7.36
2019-03-26T20:50:14.378Z,7.37
2019-03-26T20:52:41.774Z,7.41
2019-03-26T20:55:09.829Z,7.42
2019-03-26T20:57:38.368Z,7.43
2019-03-26T21:00:06.811Z,7.44
2019-03-26T21:02:34.233Z,7.45
2019-03-26T21:05:01.806Z,7.45
2019-03-26T21:07:29.217Z,7.47
2019-03-26T21:09:56.710Z,7.45
2019-03-26T21:12:23.948Z,7.42
2019-03-26T21:14:51.321Z,7.41
2019-03-26T21:17:18.612Z,7.37
2019-03-26T21:19:46.075Z,7.35
2019-03-26T21:22:13.497Z,7.37
2019-03-26T21:24:40.866Z,7.36
2019-03-26T21:27:09.277Z,7.31
2019-03-26T21:29:36.577Z,7.27
2019-03-26T21:32:03.967Z,7.27
2019-03-26T21:34:31.275Z,7.22
2019-03-26T21:36:58.580Z,7.16
2019-03-26T21:39:25.946Z,7.15
2019-03-26T21:41:53.310Z,7.23
2019-03-26T21:44:20.675Z,7.25
2019-03-26T21:46:48.142Z,7.23
2019-03-26T21:49:15.571Z,7.27
2019-03-26T21:51:42.955Z,7.28
2019-03-26T21:54:10.275Z,7.28
2019-03-26T21:56:37.653Z,7.29
2019-03-26T21:59:05.057Z,7.30
2019-03-26T22:01:33.499Z,7.31
2019-03-26T22:04:00.895Z,7.28
2019-03-26T22:06:28.213Z,7.32
2019-03-26T22:08:55.667Z,7.29
2019-03-26T22:11:23.045Z,7.30
2019-03-26T22:13:51.429Z,7.26
2019-03-26T22:16:18.882Z,7.27
2019-03-26T22:18:46.314Z,7.28
2019-03-26T22:21:13.699Z,7.26
2019-03-26T22:23:41.025Z,7.23
2019-03-26T22:26:08.464Z,7.18
2019-03-26T22:28:35.798Z,7.14
2019-03-26T22:31:03.131Z,7.09
2019-03-26T22:33:30.585Z,7.08
2019-03-26T22:35:57.968Z,7.09
2019-03-26T22:38:25.339Z,7.06
2019-03-26T22:40:53.776Z,7.01
2019-03-26T22:43:21.333Z,7.00
2019-03-26T22:45:49.837Z,7.06
2019-03-26T22:48:17.060Z,7.04
2019-03-26T22:50:44.413Z,7.04
2019-03-26T22:53:11.773Z,6.98
2019-03-26T22:55:38.972Z,6.92
2019-03-26T22:58:08.123Z,6.90
2019-03-26T23:00:35.856Z,6.84
2019-03-26T23:03:04.098Z,6.80
2019-03-26T23:05:31.380Z,6.84
2019-03-26T23:07:58.691Z,6.78
2019-03-26T23:10:26.031Z,6.72
2019-03-26T23:12:53.346Z,6.64
2019-03-26T23:15:22.348Z,6.64
2019-03-26T23:17:49.655Z,6.61
2019-03-26T23:20:17.987Z,6.60
2019-03-26T23:22:45.244Z,6.55
2019-03-26T23:25:12.840Z,6.50
2019-03-26T23:27:40.236Z,6.53
2019-03-26T23:30:07.686Z,6.50
2019-03-26T23:32:34.886Z,6.47
2019-03-26T23:35:02.200Z,6.39
2019-03-26T23:37:29.517Z,6.37
2019-03-26T23:39:56.740Z,6.31
2019-03-26T23:42:23.945Z,6.31
2019-03-26T23:44:58.158Z,6.36
2019-03-26T23:47:20.460Z,6.40
2019-03-26T23:49:47.769Z,6.39
2019-03-26T23:52:15.110Z,6.39
2019-03-26T23:54:42.651Z,6.29
2019-03-26T23:57:09.863Z,6.24
2019-03-26T23:59:37.145Z,6.20
